sensor_id;sensor_type;location;lat;lon;timestamp;P1;durP1;ratioP1;P2;durP2;ratioP2
9983;SDS011;16737;50.932;6.780;2023-02-28T00:01:21;0.68;;;0.68;;
9983;SDS011;16737;50.932;6.780;2023-02-28T00:03:48;0.63;;;0.63;;
9983;SDS011;16737;50.932;6.780;2023-02-28T00:06:15;0.60;;;0.60;;
9983;SDS011;16737;50.932;6.780;2023-02-28T00:08:43;0.70;;;0.70;;
9983;SDS011;16737;50.932;6.780;2023-02-28T00:11:10;0.60;;;0.60;;
9983;SDS011;16737;50.932;6.780;2023-02-28T00:13:41;0.68;;;0.68;;
9983;SDS011;16737;50.932;6.780;2023-02-28T00:16:12;0.70;;;0.70;;
9983;SDS011;16737;50.932;6.780;2023-02-28T00:18:44;0.80;;;0.80;;
9983;SDS011;16737;50.932;6.780;2023-02-28T00:21:12;0.80;;;0.80;;
9983;SDS011;16737;50.932;6.780;2023-02-28T00:23:40;0.68;;;0.68;;
9983;SDS011;16737;50.932;6.780;2023-02-28T00:26:07;0.70;;;0.70;;
9983;SDS011;16737;50.932;6.780;2023-02-28T00:28:34;0.60;;;0.60;;
9983;SDS011;16737;50.932;6.780;2023-02-28T00:31:01;0.60;;;0.60;;
9983;SDS011;16737;50.932;6.780;2023-02-28T00:33:28;0.60;;;0.60;;
9983;SDS011;16737;50.932;6.780;2023-02-28T00:36:04;0.90;;;0.90;;
9983;SDS011;16737;50.932;6.780;2023-02-28T00:38:33;0.52;;;0.52;;
9983;SDS011;16737;50.932;6.780;2023-02-28T00:41:00;0.60;;;0.60;;
9983;SDS011;16737;50.932;6.780;2023-02-28T00:43:30;0.60;;;0.60;;
9983;SDS011;16737;50.932;6.780;2023-02-28T00:45:58;0.75;;;0.75;;
9983;SDS011;16737;50.932;6.780;2023-02-28T00:48:25;0.70;;;0.70;;
9983;SDS011;16737;50.932;6.780;2023-02-28T00:50:52;0.80;;;0.80;;
9983;SDS011;16737;50.932;6.780;2023-02-28T00:53:21;0.60;;;0.60;;
9983;SDS011;16737;50.932;6.780;2023-02-28T00:55:48;0.70;;;0.70;;
9983;SDS011;16737;50.932;6.780;2023-02-28T00:58:15;0.50;;;0.50;;
9983;SDS011;16737;50.932;6.780;2023-02-28T01:00:43;0.73;;;0.73;;
9983;SDS011;16737;50.932;6.780;2023-02-28T01:03:13;0.60;;;0.60;;
9983;SDS011;16737;50.932;6.780;2023-02-28T01:05:42;0.82;;;0.82;;
9983;SDS011;16737;50.932;6.780;2023-02-28T01:08:09;0.60;;;0.60;;
9983;SDS011;16737;50.932;6.780;2023-02-28T01:10:37;0.60;;;0.60;;
9983;SDS011;16737;50.932;6.780;2023-02-28T01:13:04;0.63;;;0.63;;
9983;SDS011;16737;50.932;6.780;2023-02-28T01:15:31;0.70;;;0.70;;
9983;SDS011;16737;50.932;6.780;2023-02-28T01:18:00;0.60;;;0.60;;
9983;SDS011;16737;50.932;6.780;2023-02-28T01:20:29;0.50;;;0.50;;
9983;SDS011;16737;50.932;6.780;2023-02-28T01:22:55;0.60;;;0.60;;
9983;SDS011;16737;50.932;6.780;2023-02-28T01:25:22;0.70;;;0.70;;
9983;SDS011;16737;50.932;6.780;2023-02-28T01:27:50;0.80;;;0.80;;
9983;SDS011;16737;50.932;6.780;2023-02-28T01:30:17;0.80;;;0.80;;
9983;SDS011;16737;50.932;6.780;2023-02-28T01:32:45;0.68;;;0.68;;
9983;SDS011;16737;50.932;6.780;2023-02-28T01:35:12;0.90;;;0.90;;
9983;SDS011;16737;50.932;6.780;2023-02-28T01:37:38;0.70;;;0.70;;
9983;SDS011;16737;50.932;6.780;2023-02-28T01:40:06;0.70;;;0.70;;
9983;SDS011;16737;50.932;6.780;2023-02-28T01:42:35;0.85;;;0.85;;
9983;SDS011;16737;50.932;6.780;2023-02-28T01:45:14;0.60;;;0.60;;
9983;SDS011;16737;50.932;6.780;2023-02-28T01:47:50;0.57;;;0.57;;
9983;SDS011;16737;50.932;6.780;2023-02-28T01:50:24;0.70;;;0.70;;
9983;SDS011;16737;50.932;6.780;2023-02-28T01:52:58;0.70;;;0.70;;
9983;SDS011;16737;50.932;6.780;2023-02-28T01:55:32;0.60;;;0.60;;
9983;SDS011;16737;50.932;6.780;2023-02-28T01:58:02;0.63;;;0.63;;
9983;SDS011;16737;50.932;6.780;2023-02-28T02:00:35;0.70;;;0.70;;
9983;SDS011;16737;50.932;6.780;2023-02-28T02:03:04;0.50;;;0.50;;
9983;SDS011;16737;50.932;6.780;2023-02-28T02:05:36;0.50;;;0.50;;
9983;SDS011;16737;50.932;6.780;2023-02-28T02:08:05;0.50;;;0.50;;
9983;SDS011;16737;50.932;6.780;2023-02-28T02:10:39;0.50;;;0.50;;
9983;SDS011;16737;50.932;6.780;2023-02-28T02:13:16;0.50;;;0.50;;
9983;SDS011;16737;50.932;6.780;2023-02-28T02:16:03;0.43;;;0.43;;
9983;SDS011;16737;50.932;6.780;2023-02-28T02:18:43;0.40;;;0.40;;
9983;SDS011;16737;50.932;6.780;2023-02-28T02:21:31;0.57;;;0.57;;
9983;SDS011;16737;50.932;6.780;2023-02-28T02:27:55;0.40;;;0.40;;
9983;SDS011;16737;50.932;6.780;2023-02-28T02:31:01;0.50;;;0.50;;
9983;SDS011;16737;50.932;6.780;2023-02-28T02:37:08;0.40;;;0.40;;
9983;SDS011;16737;50.932;6.780;2023-02-28T02:39:47;0.50;;;0.50;;
9983;SDS011;16737;50.932;6.780;2023-02-28T02:42:21;0.43;;;0.43;;
9983;SDS011;16737;50.932;6.780;2023-02-28T02:44:59;0.40;;;0.40;;
9983;SDS011;16737;50.932;6.780;2023-02-28T02:47:34;0.50;;;0.50;;
9983;SDS011;16737;50.932;6.780;2023-02-28T02:50:06;0.40;;;0.40;;
9983;SDS011;16737;50.932;6.780;2023-02-28T02:52:40;0.40;;;0.40;;
9983;SDS011;16737;50.932;6.780;2023-02-28T02:55:13;0.40;;;0.40;;
9983;SDS011;16737;50.932;6.780;2023-02-28T02:57:44;0.50;;;0.50;;
9983;SDS011;16737;50.932;6.780;2023-02-28T03:00:15;0.40;;;0.40;;
9983;SDS011;16737;50.932;6.780;2023-02-28T03:02:49;0.40;;;0.40;;
9983;SDS011;16737;50.932;6.780;2023-02-28T03:05:23;0.40;;;0.40;;
9983;SDS011;16737;50.932;6.780;2023-02-28T03:07:56;0.40;;;0.40;;
9983;SDS011;16737;50.932;6.780;2023-02-28T03:10:27;0.40;;;0.40;;
9983;SDS011;16737;50.932;6.780;2023-02-28T03:13:10;0.52;;;0.52;;
9983;SDS011;16737;50.932;6.780;2023-02-28T03:16:10;0.45;;;0.45;;
9983;SDS011;16737;50.932;6.780;2023-02-28T03:19:02;0.30;;;0.30;;
9983;SDS011;16737;50.932;6.780;2023-02-28T03:21:49;0.50;;;0.50;;
9983;SDS011;16737;50.932;6.780;2023-02-28T03:24:35;0.50;;;0.50;;
9983;SDS011;16737;50.932;6.780;2023-02-28T03:27:12;0.45;;;0.45;;
9983;SDS011;16737;50.932;6.780;2023-02-28T03:29:50;0.40;;;0.40;;
9983;SDS011;16737;50.932;6.780;2023-02-28T03:32:26;0.40;;;0.40;;
9983;SDS011;16737;50.932;6.780;2023-02-28T03:35:00;0.57;;;0.57;;
9983;SDS011;16737;50.932;6.780;2023-02-28T03:37:36;0.40;;;0.40;;
9983;SDS011;16737;50.932;6.780;2023-02-28T03:40:08;0.40;;;0.40;;
9983;SDS011;16737;50.932;6.780;2023-02-28T03:42:42;0.50;;;0.50;;
9983;SDS011;16737;50.932;6.780;2023-02-28T03:45:14;0.50;;;0.50;;
9983;SDS011;16737;50.932;6.780;2023-02-28T03:47:46;0.40;;;0.40;;
9983;SDS011;16737;50.932;6.780;2023-02-28T03:50:20;0.50;;;0.50;;
9983;SDS011;16737;50.932;6.780;2023-02-28T03:52:55;0.40;;;0.40;;
9983;SDS011;16737;50.932;6.780;2023-02-28T03:55:32;0.43;;;0.43;;
9983;SDS011;16737;50.932;6.780;2023-02-28T03:58:12;0.50;;;0.50;;
9983;SDS011;16737;50.932;6.780;2023-02-28T04:00:51;0.55;;;0.55;;
9983;SDS011;16737;50.932;6.780;2023-02-28T04:03:33;0.50;;;0.50;;
9983;SDS011;16737;50.932;6.780;2023-02-28T04:06:01;0.40;;;0.40;;
9983;SDS011;16737;50.932;6.780;2023-02-28T04:08:31;0.50;;;0.50;;
9983;SDS011;16737;50.932;6.780;2023-02-28T04:11:00;0.50;;;0.50;;
9983;SDS011;16737;50.932;6.780;2023-02-28T04:13:32;0.57;;;0.57;;
9983;SDS011;16737;50.932;6.780;2023-02-28T04:15:59;0.45;;;0.45;;
9983;SDS011;16737;50.932;6.780;2023-02-28T04:18:26;0.50;;;0.50;;
9983;SDS011;16737;50.932;6.780;2023-02-28T04:20:53;0.50;;;0.50;;
9983;SDS011;16737;50.932;6.780;2023-02-28T04:23:20;0.40;;;0.40;;
9983;SDS011;16737;50.932;6.780;2023-02-28T04:25:48;0.60;;;0.60;;
9983;SDS011;16737;50.932;6.780;2023-02-28T04:28:16;0.50;;;0.50;;
9983;SDS011;16737;50.932;6.780;2023-02-28T04:30:43;0.50;;;0.50;;
9983;SDS011;16737;50.932;6.780;2023-02-28T04:33:10;0.50;;;0.50;;
9983;SDS011;16737;50.932;6.780;2023-02-28T04:35:36;0.43;;;0.43;;
9983;SDS011;16737;50.932;6.780;2023-02-28T04:38:03;0.60;;;0.60;;
9983;SDS011;16737;50.932;6.780;2023-02-28T04:40:30;0.50;;;0.50;;
9983;SDS011;16737;50.932;6.780;2023-02-28T04:42:58;0.52;;;0.52;;
9983;SDS011;16737;50.932;6.780;2023-02-28T04:45:25;0.50;;;0.50;;
9983;SDS011;16737;50.932;6.780;2023-02-28T04:47:55;0.50;;;0.50;;
9983;SDS011;16737;50.932;6.780;2023-02-28T04:50:22;0.63;;;0.63;;
9983;SDS011;16737;50.932;6.780;2023-02-28T04:52:49;0.50;;;0.50;;
9983;SDS011;16737;50.932;6.780;2023-02-28T04:55:16;0.60;;;0.60;;
9983;SDS011;16737;50.932;6.780;2023-02-28T04:57:43;0.60;;;0.60;;
9983;SDS011;16737;50.932;6.780;2023-02-28T05:00:11;0.50;;;0.50;;
9983;SDS011;16737;50.932;6.780;2023-02-28T05:02:41;0.50;;;0.50;;
9983;SDS011;16737;50.932;6.780;2023-02-28T05:05:08;0.43;;;0.43;;
9983;SDS011;16737;50.932;6.780;2023-02-28T05:07:35;0.60;;;0.60;;
9983;SDS011;16737;50.932;6.780;2023-02-28T05:10:03;0.50;;;0.50;;
9983;SDS011;16737;50.932;6.780;2023-02-28T05:12:30;0.40;;;0.40;;
9983;SDS011;16737;50.932;6.780;2023-02-28T05:14:57;0.50;;;0.50;;
9983;SDS011;16737;50.932;6.780;2023-02-28T05:17:27;0.40;;;0.40;;
9983;SDS011;16737;50.932;6.780;2023-02-28T05:19:54;0.52;;;0.52;;
9983;SDS011;16737;50.932;6.780;2023-02-28T05:22:21;0.50;;;0.50;;
9983;SDS011;16737;50.932;6.780;2023-02-28T05:24:48;0.40;;;0.40;;
9983;SDS011;16737;50.932;6.780;2023-02-28T05:27:15;0.50;;;0.50;;
9983;SDS011;16737;50.932;6.780;2023-02-28T05:29:42;0.57;;;0.57;;
9983;SDS011;16737;50.932;6.780;2023-02-28T05:34:39;0.50;;;0.50;;
9983;SDS011;16737;50.932;6.780;2023-02-28T05:37:08;0.50;;;0.50;;
9983;SDS011;16737;50.932;6.780;2023-02-28T05:39:38;0.50;;;0.50;;
9983;SDS011;16737;50.932;6.780;2023-02-28T05:42:06;0.53;;;0.53;;
9983;SDS011;16737;50.932;6.780;2023-02-28T05:44:34;0.50;;;0.50;;
9983;SDS011;16737;50.932;6.780;2023-02-28T05:47:01;0.50;;;0.50;;
9983;SDS011;16737;50.932;6.780;2023-02-28T05:49:28;0.60;;;0.60;;
9983;SDS011;16737;50.932;6.780;2023-02-28T05:51:56;0.52;;;0.52;;
9983;SDS011;16737;50.932;6.780;2023-02-28T05:54:23;0.60;;;0.60;;
9983;SDS011;16737;50.932;6.780;2023-02-28T05:56:50;0.53;;;0.53;;
9983;SDS011;16737;50.932;6.780;2023-02-28T05:59:17;0.40;;;0.40;;
9983;SDS011;16737;50.932;6.780;2023-02-28T06:01:45;0.50;;;0.50;;
9983;SDS011;16737;50.932;6.780;2023-02-28T06:04:14;0.40;;;0.40;;
9983;SDS011;16737;50.932;6.780;2023-02-28T06:06:43;0.40;;;0.40;;
9983;SDS011;16737;50.932;6.780;2023-02-28T06:09:12;0.60;;;0.60;;
9983;SDS011;16737;50.932;6.780;2023-02-28T06:11:39;0.50;;;0.50;;
9983;SDS011;16737;50.932;6.780;2023-02-28T06:14:07;0.60;;;0.60;;
9983;SDS011;16737;50.932;6.780;2023-02-28T06:16:41;0.50;;;0.50;;
9983;SDS011;16737;50.932;6.780;2023-02-28T06:19:09;0.47;;;0.47;;
9983;SDS011;16737;50.932;6.780;2023-02-28T06:21:37;0.47;;;0.47;;
9983;SDS011;16737;50.932;6.780;2023-02-28T06:24:04;0.50;;;0.50;;
9983;SDS011;16737;50.932;6.780;2023-02-28T06:26:34;0.50;;;0.50;;
9983;SDS011;16737;50.932;6.780;2023-02-28T06:29:01;0.50;;;0.50;;
9983;SDS011;16737;50.932;6.780;2023-02-28T06:31:29;0.70;;;0.70;;
9983;SDS011;16737;50.932;6.780;2023-02-28T06:33:56;0.40;;;0.40;;
9983;SDS011;16737;50.932;6.780;2023-02-28T06:36:23;0.52;;;0.52;;
9983;SDS011;16737;50.932;6.780;2023-02-28T06:38:50;0.47;;;0.47;;
9983;SDS011;16737;50.932;6.780;2023-02-28T06:41:20;0.52;;;0.52;;
9983;SDS011;16737;50.932;6.780;2023-02-28T06:43:49;0.40;;;0.40;;
9983;SDS011;16737;50.932;6.780;2023-02-28T06:46:17;0.47;;;0.47;;
9983;SDS011;16737;50.932;6.780;2023-02-28T06:48:44;0.50;;;0.50;;
9983;SDS011;16737;50.932;6.780;2023-02-28T06:51:12;0.40;;;0.40;;
9983;SDS011;16737;50.932;6.780;2023-02-28T06:53:42;0.55;;;0.55;;
9983;SDS011;16737;50.932;6.780;2023-02-28T06:56:10;0.40;;;0.40;;
9983;SDS011;16737;50.932;6.780;2023-02-28T06:58:38;0.60;;;0.60;;
9983;SDS011;16737;50.932;6.780;2023-02-28T07:01:07;0.40;;;0.40;;
9983;SDS011;16737;50.932;6.780;2023-02-28T07:03:35;0.50;;;0.50;;
9983;SDS011;16737;50.932;6.780;2023-02-28T07:06:02;0.50;;;0.50;;
9983;SDS011;16737;50.932;6.780;2023-02-28T07:08:31;0.60;;;0.60;;
9983;SDS011;16737;50.932;6.780;2023-02-28T07:11:00;0.40;;;0.40;;
9983;SDS011;16737;50.932;6.780;2023-02-28T07:13:26;0.60;;;0.60;;
9983;SDS011;16737;50.932;6.780;2023-02-28T07:15:54;0.50;;;0.50;;
9983;SDS011;16737;50.932;6.780;2023-02-28T07:18:24;0.50;;;0.50;;
9983;SDS011;16737;50.932;6.780;2023-02-28T07:20:52;0.50;;;0.50;;
9983;SDS011;16737;50.932;6.780;2023-02-28T07:23:19;0.47;;;0.47;;
9983;SDS011;16737;50.932;6.780;2023-02-28T07:25:47;0.50;;;0.50;;
9983;SDS011;16737;50.932;6.780;2023-02-28T07:28:15;0.50;;;0.50;;
9983;SDS011;16737;50.932;6.780;2023-02-28T07:30:43;0.50;;;0.50;;
9983;SDS011;16737;50.932;6.780;2023-02-28T07:33:10;0.50;;;0.50;;
9983;SDS011;16737;50.932;6.780;2023-02-28T07:35:38;0.50;;;0.50;;
9983;SDS011;16737;50.932;6.780;2023-02-28T07:38:05;0.40;;;0.40;;
9983;SDS011;16737;50.932;6.780;2023-02-28T07:40:33;0.60;;;0.60;;
9983;SDS011;16737;50.932;6.780;2023-02-28T07:43:02;0.40;;;0.40;;
9983;SDS011;16737;50.932;6.780;2023-02-28T07:45:30;0.50;;;0.50;;
9983;SDS011;16737;50.932;6.780;2023-02-28T07:47:59;0.47;;;0.47;;
9983;SDS011;16737;50.932;6.780;2023-02-28T07:50:27;0.50;;;0.50;;
9983;SDS011;16737;50.932;6.780;2023-02-28T07:52:56;0.50;;;0.50;;
9983;SDS011;16737;50.932;6.780;2023-02-28T07:55:23;0.45;;;0.45;;
9983;SDS011;16737;50.932;6.780;2023-02-28T07:57:50;0.50;;;0.50;;
9983;SDS011;16737;50.932;6.780;2023-02-28T08:00:17;0.50;;;0.50;;
9983;SDS011;16737;50.932;6.780;2023-02-28T08:02:45;0.50;;;0.50;;
9983;SDS011;16737;50.932;6.780;2023-02-28T08:05:12;0.40;;;0.40;;
9983;SDS011;16737;50.932;6.780;2023-02-28T08:07:39;0.40;;;0.40;;
9983;SDS011;16737;50.932;6.780;2023-02-28T08:10:08;0.40;;;0.40;;
9983;SDS011;16737;50.932;6.780;2023-02-28T08:12:36;0.40;;;0.40;;
9983;SDS011;16737;50.932;6.780;2023-02-28T08:15:03;0.47;;;0.47;;
9983;SDS011;16737;50.932;6.780;2023-02-28T08:17:31;0.45;;;0.45;;
9983;SDS011;16737;50.932;6.780;2023-02-28T08:19:58;0.40;;;0.40;;
9983;SDS011;16737;50.932;6.780;2023-02-28T08:22:25;0.40;;;0.40;;
9983;SDS011;16737;50.932;6.780;2023-02-28T08:24:52;0.40;;;0.40;;
9983;SDS011;16737;50.932;6.780;2023-02-28T08:27:20;0.40;;;0.40;;
9983;SDS011;16737;50.932;6.780;2023-02-28T08:29:47;0.40;;;0.40;;
9983;SDS011;16737;50.932;6.780;2023-02-28T08:32:14;0.50;;;0.50;;
9983;SDS011;16737;50.932;6.780;2023-02-28T08:34:41;0.30;;;0.30;;
9983;SDS011;16737;50.932;6.780;2023-02-28T08:37:08;0.43;;;0.43;;
9983;SDS011;16737;50.932;6.780;2023-02-28T08:39:36;0.40;;;0.40;;
9983;SDS011;16737;50.932;6.780;2023-02-28T08:42:03;0.50;;;0.50;;
9983;SDS011;16737;50.932;6.780;2023-02-28T08:44:32;0.50;;;0.50;;
9983;SDS011;16737;50.932;6.780;2023-02-28T08:46:59;0.40;;;0.40;;
9983;SDS011;16737;50.932;6.780;2023-02-28T08:49:26;0.30;;;0.30;;
9983;SDS011;16737;50.932;6.780;2023-02-28T08:51:53;0.40;;;0.40;;
9983;SDS011;16737;50.932;6.780;2023-02-28T08:54:22;0.45;;;0.45;;
9983;SDS011;16737;50.932;6.780;2023-02-28T08:56:49;0.40;;;0.40;;
9983;SDS011;16737;50.932;6.780;2023-02-28T08:59:16;0.40;;;0.40;;
9983;SDS011;16737;50.932;6.780;2023-02-28T09:01:44;0.43;;;0.43;;
9983;SDS011;16737;50.932;6.780;2023-02-28T09:04:11;0.40;;;0.40;;
9983;SDS011;16737;50.932;6.780;2023-02-28T09:06:38;0.40;;;0.40;;
9983;SDS011;16737;50.932;6.780;2023-02-28T09:09:05;0.38;;;0.38;;
9983;SDS011;16737;50.932;6.780;2023-02-28T09:11:32;0.40;;;0.40;;
9983;SDS011;16737;50.932;6.780;2023-02-28T09:14:00;0.40;;;0.40;;
9983;SDS011;16737;50.932;6.780;2023-02-28T09:16:28;0.40;;;0.40;;
9983;SDS011;16737;50.932;6.780;2023-02-28T09:18:58;0.40;;;0.40;;
9983;SDS011;16737;50.932;6.780;2023-02-28T09:21:25;0.40;;;0.40;;
9983;SDS011;16737;50.932;6.780;2023-02-28T09:23:53;0.40;;;0.40;;
9983;SDS011;16737;50.932;6.780;2023-02-28T09:26:21;0.40;;;0.40;;
9983;SDS011;16737;50.932;6.780;2023-02-28T09:28:51;0.40;;;0.40;;
9983;SDS011;16737;50.932;6.780;2023-02-28T09:31:20;0.38;;;0.38;;
9983;SDS011;16737;50.932;6.780;2023-02-28T09:33:51;0.40;;;0.40;;
9983;SDS011;16737;50.932;6.780;2023-02-28T09:36:22;0.43;;;0.43;;
9983;SDS011;16737;50.932;6.780;2023-02-28T09:38:50;0.40;;;0.40;;
9983;SDS011;16737;50.932;6.780;2023-02-28T09:41:19;0.40;;;0.40;;
9983;SDS011;16737;50.932;6.780;2023-02-28T09:43:49;0.40;;;0.40;;
9983;SDS011;16737;50.932;6.780;2023-02-28T09:46:25;0.40;;;0.40;;
9983;SDS011;16737;50.932;6.780;2023-02-28T09:48:58;0.40;;;0.40;;
9983;SDS011;16737;50.932;6.780;2023-02-28T09:51:35;0.40;;;0.40;;
9983;SDS011;16737;50.932;6.780;2023-02-28T09:54:15;0.40;;;0.40;;
9983;SDS011;16737;50.932;6.780;2023-02-28T09:56:45;0.40;;;0.40;;
9983;SDS011;16737;50.932;6.780;2023-02-28T09:59:29;0.32;;;0.32;;
9983;SDS011;16737;50.932;6.780;2023-02-28T10:02:14;0.40;;;0.40;;
9983;SDS011;16737;50.932;6.780;2023-02-28T10:05:05;0.40;;;0.40;;
9983;SDS011;16737;50.932;6.780;2023-02-28T10:07:42;0.40;;;0.40;;
9983;SDS011;16737;50.932;6.780;2023-02-28T10:10:26;0.50;;;0.50;;
9983;SDS011;16737;50.932;6.780;2023-02-28T10:13:04;0.30;;;0.30;;
9983;SDS011;16737;50.932;6.780;2023-02-28T10:15:43;0.40;;;0.40;;
9983;SDS011;16737;50.932;6.780;2023-02-28T10:18:14;0.40;;;0.40;;
9983;SDS011;16737;50.932;6.780;2023-02-28T10:20:47;0.40;;;0.40;;
9983;SDS011;16737;50.932;6.780;2023-02-28T10:23:20;0.40;;;0.40;;
9983;SDS011;16737;50.932;6.780;2023-02-28T10:25:53;0.40;;;0.40;;
9983;SDS011;16737;50.932;6.780;2023-02-28T10:28:24;0.30;;;0.30;;
9983;SDS011;16737;50.932;6.780;2023-02-28T10:30:58;0.40;;;0.40;;
9983;SDS011;16737;50.932;6.780;2023-02-28T10:33:28;0.40;;;0.40;;
9983;SDS011;16737;50.932;6.780;2023-02-28T10:35:59;0.40;;;0.40;;
9983;SDS011;16737;50.932;6.780;2023-02-28T10:38:31;0.40;;;0.40;;
9983;SDS011;16737;50.932;6.780;2023-02-28T10:41:05;0.40;;;0.40;;
9983;SDS011;16737;50.932;6.780;2023-02-28T10:43:34;0.30;;;0.30;;
9983;SDS011;16737;50.932;6.780;2023-02-28T10:46:03;0.40;;;0.40;;
9983;SDS011;16737;50.932;6.780;2023-02-28T10:48:40;0.45;;;0.45;;
9983;SDS011;16737;50.932;6.780;2023-02-28T10:51:13;0.35;;;0.35;;
9983;SDS011;16737;50.932;6.780;2023-02-28T10:53:49;0.40;;;0.40;;
9983;SDS011;16737;50.932;6.780;2023-02-28T10:56:19;0.40;;;0.40;;
9983;SDS011;16737;50.932;6.780;2023-02-28T10:58:48;0.30;;;0.30;;
9983;SDS011;16737;50.932;6.780;2023-02-28T11:01:20;0.43;;;0.43;;
9983;SDS011;16737;50.932;6.780;2023-02-28T11:03:50;0.40;;;0.40;;
9983;SDS011;16737;50.932;6.780;2023-02-28T11:06:19;0.30;;;0.30;;
9983;SDS011;16737;50.932;6.780;2023-02-28T11:08:51;0.40;;;0.40;;
9983;SDS011;16737;50.932;6.780;2023-02-28T11:11:21;0.40;;;0.40;;
9983;SDS011;16737;50.932;6.780;2023-02-28T11:13:52;0.40;;;0.40;;
9983;SDS011;16737;50.932;6.780;2023-02-28T11:16:30;0.40;;;0.40;;
9983;SDS011;16737;50.932;6.780;2023-02-28T11:19:00;0.40;;;0.40;;
9983;SDS011;16737;50.932;6.780;2023-02-28T11:21:33;0.40;;;0.40;;
9983;SDS011;16737;50.932;6.780;2023-02-28T11:24:12;0.40;;;0.40;;
9983;SDS011;16737;50.932;6.780;2023-02-28T11:26:49;0.40;;;0.40;;
9983;SDS011;16737;50.932;6.780;2023-02-28T11:29:18;0.40;;;0.40;;
9983;SDS011;16737;50.932;6.780;2023-02-28T11:32:04;0.40;;;0.40;;
9983;SDS011;16737;50.932;6.780;2023-02-28T11:34:42;0.40;;;0.40;;
9983;SDS011;16737;50.932;6.780;2023-02-28T11:37:11;0.40;;;0.40;;
9983;SDS011;16737;50.932;6.780;2023-02-28T11:39:42;0.40;;;0.40;;
9983;SDS011;16737;50.932;6.780;2023-02-28T11:42:23;0.40;;;0.40;;
9983;SDS011;16737;50.932;6.780;2023-02-28T11:45:12;0.40;;;0.40;;
9983;SDS011;16737;50.932;6.780;2023-02-28T11:47:50;0.30;;;0.30;;
9983;SDS011;16737;50.932;6.780;2023-02-28T11:50:36;0.40;;;0.40;;
9983;SDS011;16737;50.932;6.780;2023-02-28T11:53:21;0.40;;;0.40;;
9983;SDS011;16737;50.932;6.780;2023-02-28T11:56:08;0.40;;;0.40;;
9983;SDS011;16737;50.932;6.780;2023-02-28T11:58:45;0.40;;;0.40;;
9983;SDS011;16737;50.932;6.780;2023-02-28T12:01:28;0.32;;;0.32;;
9983;SDS011;16737;50.932;6.780;2023-02-28T12:04:11;0.40;;;0.40;;
9983;SDS011;16737;50.932;6.780;2023-02-28T12:06:52;0.40;;;0.40;;
9983;SDS011;16737;50.932;6.780;2023-02-28T12:09:35;0.40;;;0.40;;
9983;SDS011;16737;50.932;6.780;2023-02-28T12:12:21;0.38;;;0.38;;
9983;SDS011;16737;50.932;6.780;2023-02-28T12:18:19;0.40;;;0.40;;
9983;SDS011;16737;50.932;6.780;2023-02-28T12:21:04;0.40;;;0.40;;
9983;SDS011;16737;50.932;6.780;2023-02-28T12:23:56;0.40;;;0.40;;
9983;SDS011;16737;50.932;6.780;2023-02-28T12:26:44;0.40;;;0.40;;
9983;SDS011;16737;50.932;6.780;2023-02-28T12:29:15;0.30;;;0.30;;
9983;SDS011;16737;50.932;6.780;2023-02-28T12:31:49;0.40;;;0.40;;
9983;SDS011;16737;50.932;6.780;2023-02-28T12:34:22;0.40;;;0.40;;
9983;SDS011;16737;50.932;6.780;2023-02-28T12:36:57;0.35;;;0.35;;
9983;SDS011;16737;50.932;6.780;2023-02-28T12:39:33;0.32;;;0.32;;
9983;SDS011;16737;50.932;6.780;2023-02-28T12:42:09;0.38;;;0.38;;
9983;SDS011;16737;50.932;6.780;2023-02-28T12:44:56;0.40;;;0.40;;
9983;SDS011;16737;50.932;6.780;2023-02-28T12:47:28;0.30;;;0.30;;
9983;SDS011;16737;50.932;6.780;2023-02-28T12:49:56;0.30;;;0.30;;
9983;SDS011;16737;50.932;6.780;2023-02-28T12:52:31;0.40;;;0.40;;
9983;SDS011;16737;50.932;6.780;2023-02-28T12:55:13;0.40;;;0.40;;
9983;SDS011;16737;50.932;6.780;2023-02-28T12:57:52;0.40;;;0.40;;
9983;SDS011;16737;50.932;6.780;2023-02-28T13:00:31;0.40;;;0.40;;
9983;SDS011;16737;50.932;6.780;2023-02-28T13:03:09;0.40;;;0.40;;
9983;SDS011;16737;50.932;6.780;2023-02-28T13:06:12;0.40;;;0.40;;
9983;SDS011;16737;50.932;6.780;2023-02-28T13:09:11;0.40;;;0.40;;
9983;SDS011;16737;50.932;6.780;2023-02-28T13:11:42;0.40;;;0.40;;
9983;SDS011;16737;50.932;6.780;2023-02-28T13:14:16;0.30;;;0.30;;
9983;SDS011;16737;50.932;6.780;2023-02-28T13:17:01;0.30;;;0.30;;
9983;SDS011;16737;50.932;6.780;2023-02-28T13:19:37;0.35;;;0.35;;
9983;SDS011;16737;50.932;6.780;2023-02-28T13:22:15;0.50;;;0.50;;
9983;SDS011;16737;50.932;6.780;2023-02-28T13:24:46;0.30;;;0.30;;
9983;SDS011;16737;50.932;6.780;2023-02-28T13:30:48;0.40;;;0.40;;
9983;SDS011;16737;50.932;6.780;2023-02-28T13:33:31;0.38;;;0.38;;
9983;SDS011;16737;50.932;6.780;2023-02-28T13:38:54;0.40;;;0.40;;
9983;SDS011;16737;50.932;6.780;2023-02-28T13:41:41;0.40;;;0.40;;
9983;SDS011;16737;50.932;6.780;2023-02-28T13:44:14;0.30;;;0.30;;
9983;SDS011;16737;50.932;6.780;2023-02-28T13:49:56;0.30;;;0.30;;
9983;SDS011;16737;50.932;6.780;2023-02-28T13:52:48;0.40;;;0.40;;
9983;SDS011;16737;50.932;6.780;2023-02-28T13:55:30;0.40;;;0.40;;
9983;SDS011;16737;50.932;6.780;2023-02-28T13:58:09;0.40;;;0.40;;
9983;SDS011;16737;50.932;6.780;2023-02-28T14:00:59;0.32;;;0.32;;
9983;SDS011;16737;50.932;6.780;2023-02-28T14:03:46;0.40;;;0.40;;
9983;SDS011;16737;50.932;6.780;2023-02-28T14:07:17;0.40;;;0.40;;
9983;SDS011;16737;50.932;6.780;2023-02-28T14:09:51;0.40;;;0.40;;
9983;SDS011;16737;50.932;6.780;2023-02-28T14:15:41;0.40;;;0.40;;
9983;SDS011;16737;50.932;6.780;2023-02-28T14:18:23;0.30;;;0.30;;
9983;SDS011;16737;50.932;6.780;2023-02-28T14:20:58;0.30;;;0.30;;
9983;SDS011;16737;50.932;6.780;2023-02-28T14:23:42;0.38;;;0.38;;
9983;SDS011;16737;50.932;6.780;2023-02-28T14:26:59;0.40;;;0.40;;
9983;SDS011;16737;50.932;6.780;2023-02-28T14:30:12;0.40;;;0.40;;
9983;SDS011;16737;50.932;6.780;2023-02-28T14:33:18;0.40;;;0.40;;
9983;SDS011;16737;50.932;6.780;2023-02-28T14:36:09;0.30;;;0.30;;
9983;SDS011;16737;50.932;6.780;2023-02-28T14:38:46;0.30;;;0.30;;
9983;SDS011;16737;50.932;6.780;2023-02-28T14:41:20;0.40;;;0.40;;
9983;SDS011;16737;50.932;6.780;2023-02-28T14:44:00;0.30;;;0.30;;
9983;SDS011;16737;50.932;6.780;2023-02-28T14:46:35;0.30;;;0.30;;
9983;SDS011;16737;50.932;6.780;2023-02-28T14:49:13;0.40;;;0.40;;
9983;SDS011;16737;50.932;6.780;2023-02-28T14:51:45;0.43;;;0.43;;
9983;SDS011;16737;50.932;6.780;2023-02-28T14:54:24;0.40;;;0.40;;
9983;SDS011;16737;50.932;6.780;2023-02-28T14:56:51;0.40;;;0.40;;
9983;SDS011;16737;50.932;6.780;2023-02-28T14:59:26;0.40;;;0.40;;
9983;SDS011;16737;50.932;6.780;2023-02-28T15:02:15;0.40;;;0.40;;
9983;SDS011;16737;50.932;6.780;2023-02-28T15:04:52;0.40;;;0.40;;
9983;SDS011;16737;50.932;6.780;2023-02-28T15:07:21;0.30;;;0.30;;
9983;SDS011;16737;50.932;6.780;2023-02-28T15:10:07;0.30;;;0.30;;
9983;SDS011;16737;50.932;6.780;2023-02-28T15:12:44;0.32;;;0.32;;
9983;SDS011;16737;50.932;6.780;2023-02-28T15:15:18;0.40;;;0.40;;
9983;SDS011;16737;50.932;6.780;2023-02-28T15:17:48;0.40;;;0.40;;
9983;SDS011;16737;50.932;6.780;2023-02-28T15:20:19;0.40;;;0.40;;
9983;SDS011;16737;50.932;6.780;2023-02-28T15:22:47;0.40;;;0.40;;
9983;SDS011;16737;50.932;6.780;2023-02-28T15:25:20;0.30;;;0.30;;
9983;SDS011;16737;50.932;6.780;2023-02-28T15:27:49;0.40;;;0.40;;
9983;SDS011;16737;50.932;6.780;2023-02-28T15:30:20;0.32;;;0.32;;
9983;SDS011;16737;50.932;6.780;2023-02-28T15:35:46;0.40;;;0.40;;
9983;SDS011;16737;50.932;6.780;2023-02-28T15:38:15;0.40;;;0.40;;
9983;SDS011;16737;50.932;6.780;2023-02-28T15:40:51;0.30;;;0.30;;
9983;SDS011;16737;50.932;6.780;2023-02-28T15:43:25;0.40;;;0.40;;
9983;SDS011;16737;50.932;6.780;2023-02-28T15:45:56;0.32;;;0.32;;
9983;SDS011;16737;50.932;6.780;2023-02-28T15:48:28;0.40;;;0.40;;
9983;SDS011;16737;50.932;6.780;2023-02-28T15:51:01;0.40;;;0.40;;
9983;SDS011;16737;50.932;6.780;2023-02-28T15:53:33;0.30;;;0.30;;
9983;SDS011;16737;50.932;6.780;2023-02-28T15:56:12;0.40;;;0.40;;
9983;SDS011;16737;50.932;6.780;2023-02-28T15:58:50;0.40;;;0.40;;
9983;SDS011;16737;50.932;6.780;2023-02-28T16:01:23;0.40;;;0.40;;
9983;SDS011;16737;50.932;6.780;2023-02-28T16:03:55;0.38;;;0.38;;